createdAt,value
2022-11-10T00:01:24.655Z,101494.28
2022-11-10T00:07:07.938Z,101505.41
2022-11-10T00:12:49.502Z,101500.28
2022-11-10T00:18:31.173Z,101490.78
2022-11-10T00:24:14.399Z,101509.81
2022-11-10T00:29:55.966Z,101521.09
2022-11-10T00:35:37.746Z,101517.69
2022-11-10T00:41:20.847Z,101536.22
2022-11-10T00:47:02.445Z,101541.44
2022-11-10T00:52:44.501Z,101542.06
2022-11-10T00:58:27.427Z,101532.50
2022-11-10T01:04:09.245Z,101536.88
2022-11-10T01:09:51.061Z,101536.22
2022-11-10T01:15:34.299Z,101528.28
2022-11-10T01:21:15.965Z,101533.38
2022-11-10T01:26:57.523Z,101546.25
2022-11-10T01:32:40.793Z,101562.88
2022-11-10T01:38:22.422Z,101580.66
2022-11-10T01:44:15.661Z,101574.59
2022-11-10T01:49:58.974Z,101581.59
2022-11-10T01:55:43.488Z,101586.69
2022-11-10T02:01:25.739Z,101582.31
2022-11-10T02:07:09.737Z,101583.97
2022-11-10T02:12:52.095Z,101598.66
2022-11-10T02:18:33.644Z,101603.13
2022-11-10T02:24:16.710Z,101593.41
2022-11-10T02:29:58.462Z,101614.41
2022-11-10T02:35:40.186Z,101618.91
2022-11-10T02:41:23.098Z,101619.78
2022-11-10T02:47:05.148Z,101626.66
2022-11-10T02:52:46.869Z,101622.34
2022-11-10T02:58:30.301Z,101631.09
2022-11-10T03:04:11.984Z,101635.69
2022-11-10T03:09:53.954Z,101644.22
2022-11-10T03:15:37.095Z,101647.81
2022-11-10T03:21:18.842Z,101647.69
2022-11-10T03:27:00.427Z,101661.56
2022-11-10T03:32:43.557Z,101677.97
2022-11-10T03:38:25.117Z,101680.44
2022-11-10T03:44:07.505Z,101690.88
2022-11-10T03:49:50.684Z,101709.88
2022-11-10T03:55:32.203Z,101704.66
2022-11-10T04:01:14.530Z,101707.91
2022-11-10T04:07:15.136Z,101706.19
2022-11-10T04:13:20.185Z,101700.16
2022-11-10T04:19:02.184Z,101709.94
2022-11-10T04:24:45.607Z,101734.41
2022-11-10T04:30:27.300Z,101743.22
2022-11-10T04:36:10.219Z,101754.63
2022-11-10T04:41:55.161Z,101756.34
2022-11-10T04:47:39.059Z,101768.53
2022-11-10T04:53:21.611Z,101766.66
2022-11-10T04:59:05.377Z,101758.94
2022-11-10T05:04:46.964Z,101772.09
2022-11-10T05:10:28.879Z,101765.00
2022-11-10T05:16:11.853Z,101766.03
2022-11-10T05:21:53.452Z,101780.94
2022-11-10T05:27:35.166Z,101788.72
2022-11-10T05:33:18.536Z,101801.69
2022-11-10T05:39:00.384Z,101800.75
2022-11-10T05:44:42.496Z,101808.53
2022-11-10T05:50:26.458Z,101808.59
2022-11-10T05:56:08.944Z,101810.31
2022-11-10T06:01:50.991Z,101837.19
2022-11-10T06:07:34.137Z,101845.00
2022-11-10T06:13:16.167Z,101848.28
2022-11-10T06:18:58.155Z,101856.19
2022-11-10T06:24:41.260Z,101851.75
2022-11-10T06:30:23.381Z,101843.88
2022-11-10T06:36:05.026Z,101864.75
2022-11-10T06:41:48.064Z,101887.47
2022-11-10T06:47:29.752Z,101913.59
2022-11-10T06:53:13.645Z,101901.38
2022-11-10T06:58:57.126Z,101896.19
2022-11-10T07:04:39.101Z,101889.28
2022-11-10T07:10:20.836Z,101893.69
2022-11-10T07:16:07.535Z,101899.69
2022-11-10T07:21:49.329Z,101917.09
2022-11-10T07:27:32.526Z,101921.28
2022-11-10T07:33:16.333Z,101917.75
2022-11-10T07:38:57.867Z,101935.81
2022-11-10T07:44:40.030Z,101942.78
2022-11-10T07:50:25.080Z,101928.56
2022-11-10T07:56:07.356Z,101925.78
2022-11-10T08:01:49.137Z,101938.63
2022-11-10T08:07:32.635Z,101955.22
2022-11-10T08:13:14.708Z,101982.56
2022-11-10T08:18:56.659Z,101975.03
2022-11-10T08:24:39.972Z,101989.94
2022-11-10T08:30:21.560Z,101998.84
2022-11-10T08:36:03.688Z,102010.16
2022-11-10T08:41:50.940Z,102027.53
2022-11-10T08:47:32.896Z,102008.31
2022-11-10T08:53:16.032Z,102000.22
2022-11-10T08:58:59.308Z,102021.75
2022-11-10T09:04:41.453Z,102019.94
2022-11-10T09:10:23.720Z,102025.13
2022-11-10T09:16:07.771Z,101992.88
2022-11-10T09:21:49.535Z,102016.28
2022-11-10T09:27:32.511Z,102033.53
2022-11-10T09:33:15.625Z,102051.53
2022-11-10T09:38:59.087Z,102055.13
2022-11-10T09:44:47.600Z,102076.31
2022-11-10T09:50:38.102Z,102105.06
2022-11-10T09:56:23.006Z,102103.22
2022-11-10T10:02:06.857Z,102120.34
2022-11-10T10:07:55.707Z,102105.41
2022-11-10T10:14:18.882Z,102115.75
2022-11-10T10:20:05.428Z,102111.31
2022-11-10T10:25:48.764Z,102122.59
2022-11-10T10:31:35.138Z,102122.53
2022-11-10T10:37:23.569Z,102128.66
2022-11-10T10:43:07.145Z,102141.56
2022-11-10T10:48:53.902Z,102134.47
2022-11-10T10:54:44.733Z,102149.16
2022-11-10T11:00:29.384Z,102155.66
2022-11-10T11:06:21.060Z,102169.41
2022-11-10T11:12:08.026Z,102169.13
2022-11-10T11:17:58.123Z,102169.78
2022-11-10T11:23:47.488Z,102182.91
2022-11-10T11:29:42.806Z,102190.81
2022-11-10T11:35:37.306Z,102178.38
2022-11-10T11:41:25.524Z,102199.28
2022-11-10T11:47:15.364Z,102195.91
2022-11-10T11:53:05.379Z,102195.88
2022-11-10T11:58:52.134Z,102209.84
2022-11-10T12:04:43.842Z,102217.91
2022-11-10T12:10:42.975Z,102216.97
2022-11-10T12:16:28.307Z,102222.31
2022-11-10T12:22:15.867Z,102209.34
2022-11-10T12:28:09.378Z,102199.78
2022-11-10T12:33:54.673Z,102214.34
2022-11-10T12:39:44.171Z,102224.94
2022-11-10T12:45:36.625Z,102213.69
2022-11-10T12:51:23.907Z,102214.22
2022-11-10T12:57:08.967Z,102204.69
2022-11-10T13:02:52.548Z,102224.97
2022-11-10T13:08:36.895Z,102229.88
2022-11-10T13:14:24.339Z,102221.78
2022-11-10T13:20:47.169Z,102212.75
2022-11-10T13:26:56.461Z,102219.81
2022-11-10T13:32:38.443Z,102220.97
2022-11-10T13:38:35.429Z,102243.59
2022-11-10T13:44:27.816Z,102241.84
2022-11-10T13:50:22.298Z,102244.22
2022-11-10T13:56:19.586Z,102242.53
2022-11-10T14:02:43.470Z,102244.66
2022-11-10T14:08:32.130Z,102252.63
2022-11-10T14:14:19.837Z,102275.63
2022-11-10T14:20:05.045Z,102288.81
2022-11-10T14:25:47.029Z,102281.03
2022-11-10T14:31:30.256Z,102278.47
2022-11-10T14:37:16.320Z,102283.66
2022-11-10T14:42:59.892Z,102273.19
2022-11-10T14:48:44.113Z,102296.75
2022-11-10T14:54:28.778Z,102288.09
2022-11-10T15:00:15.676Z,102291.56
2022-11-10T15:05:58.765Z,102285.44
2022-11-10T15:11:42.043Z,102288.72
2022-11-10T15:17:44.569Z,102304.34
2022-11-10T15:23:33.771Z,102286.09
2022-11-10T15:29:20.764Z,102294.84
2022-11-10T15:35:12.063Z,102318.47
2022-11-10T15:41:10.422Z,102309.72
2022-11-10T15:46:53.824Z,102322.16
2022-11-10T15:52:35.478Z,102327.44
2022-11-10T15:58:21.124Z,102328.34
2022-11-10T16:04:03.295Z,102342.41
2022-11-10T16:09:45.031Z,102337.25
2022-11-10T16:15:28.177Z,102360.78
2022-11-10T16:21:12.973Z,102355.53
2022-11-10T16:26:54.991Z,102339.97
2022-11-10T16:32:38.052Z,102342.66
2022-11-10T16:38:21.786Z,102351.38
2022-11-10T16:44:06.734Z,102366.31
2022-11-10T16:49:50.946Z,102337.44
2022-11-10T16:55:33.098Z,102349.72
2022-11-10T17:01:20.715Z,102359.31
2022-11-10T17:07:03.617Z,102365.44
2022-11-10T17:12:45.508Z,102367.22
2022-11-10T17:18:27.420Z,102357.69
2022-11-10T17:24:13.007Z,102375.22
2022-11-10T17:29:54.430Z,102363.16
2022-11-10T17:35:41.467Z,102378.97
2022-11-10T17:41:24.328Z,102384.22
2022-11-10T17:47:05.917Z,102382.56
2022-11-10T17:52:48.249Z,102386.97
2022-11-10T17:58:31.298Z,102399.22
2022-11-10T18:04:13.788Z,102387.06
2022-11-10T18:09:55.432Z,102402.78
2022-11-10T18:15:42.656Z,102408.91
2022-11-10T18:21:24.105Z,102415.06
2022-11-10T18:27:06.059Z,102415.03
2022-11-10T18:32:49.316Z,102413.22
2022-11-10T18:38:31.338Z,102405.41
2022-11-10T18:44:13.697Z,102409.84
2022-11-10T18:49:57.053Z,102410.69
2022-11-10T18:55:42.993Z,102429.06
2022-11-10T19:01:28.026Z,102423.81
2022-11-10T19:07:11.143Z,102425.53
2022-11-10T19:12:53.187Z,102416.78
2022-11-10T19:18:34.969Z,102413.41
2022-11-10T19:24:27.519Z,102418.69
2022-11-10T19:30:10.988Z,102427.50
2022-11-10T19:35:52.669Z,102433.63
2022-11-10T19:41:37.804Z,102435.41
2022-11-10T19:47:19.351Z,102434.50
2022-11-10T19:53:01.390Z,102439.72
2022-11-10T19:58:44.862Z,102435.34
2022-11-10T20:04:26.689Z,102434.50
2022-11-10T20:10:09.242Z,102421.38
2022-11-10T20:15:52.538Z,102434.47
2022-11-10T20:21:34.433Z,102423.19
2022-11-10T20:27:16.136Z,102431.03
2022-11-10T20:32:59.279Z,102437.16
2022-11-10T20:38:41.526Z,102452.00
2022-11-10T20:44:23.294Z,102461.56
2022-11-10T20:50:13.089Z,102470.28
2022-11-10T20:55:58.866Z,102487.69
2022-11-10T21:01:40.633Z,102481.50
2022-11-10T21:07:23.878Z,102497.22
2022-11-10T21:13:05.798Z,102513.75
2022-11-10T21:18:47.231Z,102525.97
2022-11-10T21:24:30.732Z,102527.72
2022-11-10T21:30:22.539Z,102520.72
2022-11-10T21:36:06.795Z,102522.47
2022-11-10T21:41:50.046Z,102505.06
2022-11-10T21:47:31.994Z,102525.16
2022-11-10T21:53:13.594Z,102519.91
2022-11-10T21:58:56.755Z,102514.69
2022-11-10T22:04:38.414Z,102506.88
2022-11-10T22:10:38.277Z,102507.78
2022-11-10T22:16:41.368Z,102506.94
2022-11-10T22:22:23.114Z,102514.81
2022-11-10T22:28:05.103Z,102517.47
2022-11-10T22:33:48.030Z,102503.47
2022-11-10T22:39:49.613Z,102533.19
2022-11-10T22:45:31.741Z,102550.63
2022-11-10T22:51:14.729Z,102546.25
2022-11-10T22:56:56.401Z,102544.50
2022-11-10T23:02:38.393Z,102548.88
2022-11-10T23:08:21.728Z,102560.22
2022-11-10T23:14:03.427Z,102568.09
2022-11-10T23:19:45.240Z,102574.19
2022-11-10T23:25:28.604Z,102574.19
2022-11-10T23:31:12.764Z,102585.53
2022-11-10T23:36:54.725Z,102575.06
2022-11-10T23:42:37.945Z,102579.44
2022-11-10T23:48:19.744Z,102577.66
2022-11-10T23:54:01.429Z,102575.94
2022-11-10T23:59:44.524Z,102582.03
